Alamota, Kansas
Current Conditions -  °F | °C
As of 2:54 AM on Thursday 27 Nov 2014 (Local Time) from KGCK Reporting Station
Clear Clear  
Wind Chill: 11°   Ceiling: Unl
Heat Index: 20°   Visibility: 10mi
Dew Point: 15°   Wind: 7mph
Humidity: 81%   Direction: 200°SSW
Pressure: 30.4"   Gusts: NA
Location:  38.4812°N, 100.393°W
Report Text: KGCK 270854Z AUTO 20006KT 10SM CLR M07/M09 A3040 RMK AO2 SLP315 T10671094 58001
Loading
Personal Weather Stations






























Interactive Weather Map New forecast layout! Learn more

10-Day Weather Forecast

Advertisements
Track Severe Weather on mobile